sensor_id;sensor_type;location;lat;lon;timestamp;noise_LAeq;noise_LA_min;noise_LA_max;noise_LA01;noise_LA95
40465;Laerm;30489;48.982;8.394;2023-04-03T00:01:17;41.37;39.81;42.59;;
40465;Laerm;30489;48.982;8.394;2023-04-03T00:03:28;41.35;39.92;42.59;;
40465;Laerm;30489;48.982;8.394;2023-04-03T00:05:38;41.38;39.70;42.71;;
40465;Laerm;30489;48.982;8.394;2023-04-03T00:07:48;41.41;40.03;42.65;;
40465;Laerm;30489;48.982;8.394;2023-04-03T00:09:59;41.42;39.81;42.53;;
40465;Laerm;30489;48.982;8.394;2023-04-03T00:12:10;41.44;40.23;42.47;;
40465;Laerm;30489;48.982;8.394;2023-04-03T00:14:20;41.43;40.08;42.53;;
40465;Laerm;30489;48.982;8.394;2023-04-03T00:16:31;41.38;40.08;42.59;;
40465;Laerm;30489;48.982;8.394;2023-04-03T00:18:41;41.38;39.81;42.47;;
40465;Laerm;30489;48.982;8.394;2023-04-03T00:20:51;41.37;39.92;42.53;;
40465;Laerm;30489;48.982;8.394;2023-04-03T00:23:02;41.37;40.03;42.41;;
40465;Laerm;30489;48.982;8.394;2023-04-03T00:25:12;41.39;40.03;42.76;;
40465;Laerm;30489;48.982;8.394;2023-04-03T00:27:22;41.36;40.03;42.47;;
40465;Laerm;30489;48.982;8.394;2023-04-03T00:29:33;41.42;40.23;42.47;;
40465;Laerm;30489;48.982;8.394;2023-04-03T00:31:43;41.40;40.03;42.47;;
40465;Laerm;30489;48.982;8.394;2023-04-03T00:33:53;41.39;40.13;42.47;;
40465;Laerm;30489;48.982;8.394;2023-04-03T00:36:10;41.42;39.70;42.65;;
40465;Laerm;30489;48.982;8.394;2023-04-03T00:38:20;41.47;40.33;42.53;;
40465;Laerm;30489;48.982;8.394;2023-04-03T00:40:33;41.49;40.23;42.65;;
40465;Laerm;30489;48.982;8.394;2023-04-03T00:42:45;41.39;39.81;42.59;;
40465;Laerm;30489;48.982;8.394;2023-04-03T00:47:07;41.49;40.23;42.59;;
40465;Laerm;30489;48.982;8.394;2023-04-03T00:49:18;41.49;40.33;42.65;;
40465;Laerm;30489;48.982;8.394;2023-04-03T00:51:28;41.50;40.03;42.47;;
40465;Laerm;30489;48.982;8.394;2023-04-03T00:53:40;41.43;39.92;42.65;;
40465;Laerm;30489;48.982;8.394;2023-04-03T00:55:51;41.42;40.13;42.59;;
40465;Laerm;30489;48.982;8.394;2023-04-03T00:58:03;41.47;40.23;42.47;;
40465;Laerm;30489;48.982;8.394;2023-04-03T01:00:14;41.45;40.13;42.41;;
40465;Laerm;30489;48.982;8.394;2023-04-03T01:02:27;41.46;40.03;42.76;;
40465;Laerm;30489;48.982;8.394;2023-04-03T01:04:38;41.42;40.13;42.47;;
40465;Laerm;30489;48.982;8.394;2023-04-03T01:06:49;41.41;40.03;42.47;;
40465;Laerm;30489;48.982;8.394;2023-04-03T01:09:00;41.39;39.92;42.47;;
40465;Laerm;30489;48.982;8.394;2023-04-03T01:11:10;41.33;39.92;42.42;;
40465;Laerm;30489;48.982;8.394;2023-04-03T01:13:25;41.46;40.23;42.76;;
40465;Laerm;30489;48.982;8.394;2023-04-03T01:15:36;41.49;40.23;42.65;;
40465;Laerm;30489;48.982;8.394;2023-04-03T01:17:47;41.48;40.23;42.71;;
40465;Laerm;30489;48.982;8.394;2023-04-03T01:20:03;41.45;40.03;42.53;;
40465;Laerm;30489;48.982;8.394;2023-04-03T01:22:26;41.45;40.23;42.53;;
40465;Laerm;30489;48.982;8.394;2023-04-03T01:24:42;41.47;39.81;42.71;;
40465;Laerm;30489;48.982;8.394;2023-04-03T01:26:52;41.49;39.92;42.53;;
40465;Laerm;30489;48.982;8.394;2023-04-03T01:29:03;41.48;40.13;42.71;;
40465;Laerm;30489;48.982;8.394;2023-04-03T01:33:26;41.46;40.23;42.71;;
40465;Laerm;30489;48.982;8.394;2023-04-03T01:35:37;41.41;40.03;42.59;;
40465;Laerm;30489;48.982;8.394;2023-04-03T01:37:47;41.39;40.03;42.41;;
40465;Laerm;30489;48.982;8.394;2023-04-03T01:39:57;41.45;40.13;42.53;;
40465;Laerm;30489;48.982;8.394;2023-04-03T01:42:08;41.48;40.13;42.93;;
40465;Laerm;30489;48.982;8.394;2023-04-03T01:44:18;41.46;40.23;42.59;;
40465;Laerm;30489;48.982;8.394;2023-04-03T01:46:28;41.46;40.13;42.93;;
40465;Laerm;30489;48.982;8.394;2023-04-03T01:48:38;41.45;40.33;42.53;;
40465;Laerm;30489;48.982;8.394;2023-04-03T01:50:49;41.46;40.23;42.53;;
40465;Laerm;30489;48.982;8.394;2023-04-03T01:52:59;41.48;40.23;42.71;;
40465;Laerm;30489;48.982;8.394;2023-04-03T01:55:09;41.46;40.33;42.59;;
40465;Laerm;30489;48.982;8.394;2023-04-03T01:57:20;41.48;40.13;42.59;;
40465;Laerm;30489;48.982;8.394;2023-04-03T01:59:30;41.43;40.03;42.47;;
40465;Laerm;30489;48.982;8.394;2023-04-03T02:01:40;41.44;40.13;42.53;;
40465;Laerm;30489;48.982;8.394;2023-04-03T02:03:50;41.39;39.92;42.59;;
40465;Laerm;30489;48.982;8.394;2023-04-03T02:06:01;41.36;40.03;42.41;;
40465;Laerm;30489;48.982;8.394;2023-04-03T02:08:11;41.33;39.81;42.29;;
40465;Laerm;30489;48.982;8.394;2023-04-03T02:10:21;41.29;39.81;42.65;;
40465;Laerm;30489;48.982;8.394;2023-04-03T02:12:32;41.22;39.81;42.47;;
40465;Laerm;30489;48.982;8.394;2023-04-03T02:14:42;41.21;39.92;42.47;;
40465;Laerm;30489;48.982;8.394;2023-04-03T02:16:52;41.21;39.81;42.30;;
40465;Laerm;30489;48.982;8.394;2023-04-03T02:19:02;41.22;39.70;42.29;;
40465;Laerm;30489;48.982;8.394;2023-04-03T02:21:13;41.21;39.81;42.41;;
40465;Laerm;30489;48.982;8.394;2023-04-03T02:23:23;41.20;39.92;42.29;;
40465;Laerm;30489;48.982;8.394;2023-04-03T02:25:33;41.18;40.03;42.29;;
40465;Laerm;30489;48.982;8.394;2023-04-03T02:27:43;41.20;39.58;42.41;;
40465;Laerm;30489;48.982;8.394;2023-04-03T02:29:54;41.23;39.81;42.35;;
40465;Laerm;30489;48.982;8.394;2023-04-03T02:32:04;41.18;39.92;42.47;;
40465;Laerm;30489;48.982;8.394;2023-04-03T02:34:14;41.14;39.92;42.41;;
40465;Laerm;30489;48.982;8.394;2023-04-03T02:36:25;41.14;39.81;42.47;;
40465;Laerm;30489;48.982;8.394;2023-04-03T02:38:35;41.12;39.58;42.76;;
40465;Laerm;30489;48.982;8.394;2023-04-03T02:40:46;41.11;39.70;42.22;;
40465;Laerm;30489;48.982;8.394;2023-04-03T02:42:56;41.07;39.58;42.09;;
40465;Laerm;30489;48.982;8.394;2023-04-03T02:45:06;41.07;39.70;42.16;;
40465;Laerm;30489;48.982;8.394;2023-04-03T02:47:17;41.03;39.58;42.35;;
40465;Laerm;30489;48.982;8.394;2023-04-03T02:49:27;41.01;39.34;42.22;;
40465;Laerm;30489;48.982;8.394;2023-04-03T02:51:37;41.02;39.58;42.22;;
40465;Laerm;30489;48.982;8.394;2023-04-03T02:53:47;41.00;39.70;42.09;;
40465;Laerm;30489;48.982;8.394;2023-04-03T02:55:57;40.94;39.34;42.09;;
40465;Laerm;30489;48.982;8.394;2023-04-03T02:58:08;40.94;39.46;42.35;;
40465;Laerm;30489;48.982;8.394;2023-04-03T03:00:18;40.91;39.46;43.49;;
40465;Laerm;30489;48.982;8.394;2023-04-03T03:02:28;40.88;39.34;42.29;;
40465;Laerm;30489;48.982;8.394;2023-04-03T03:04:39;40.89;39.46;42.16;;
40465;Laerm;30489;48.982;8.394;2023-04-03T03:06:49;40.87;39.58;42.03;;
40465;Laerm;30489;48.982;8.394;2023-04-03T03:09:00;40.85;39.46;42.09;;
40465;Laerm;30489;48.982;8.394;2023-04-03T03:11:11;40.85;39.08;41.89;;
40465;Laerm;30489;48.982;8.394;2023-04-03T03:13:21;40.86;39.08;42.22;;
40465;Laerm;30489;48.982;8.394;2023-04-03T03:15:31;40.82;39.46;41.96;;
40465;Laerm;30489;48.982;8.394;2023-04-03T03:17:41;40.81;39.58;42.16;;
40465;Laerm;30489;48.982;8.394;2023-04-03T03:19:52;40.80;39.58;42.16;;
40465;Laerm;30489;48.982;8.394;2023-04-03T03:22:02;40.79;39.46;42.09;;
40465;Laerm;30489;48.982;8.394;2023-04-03T03:24:12;40.78;39.08;41.96;;
40465;Laerm;30489;48.982;8.394;2023-04-03T03:26:23;40.75;39.34;42.16;;
40465;Laerm;30489;48.982;8.394;2023-04-03T03:28:34;40.75;39.46;42.03;;
40465;Laerm;30489;48.982;8.394;2023-04-03T03:30:44;40.73;39.08;41.82;;
40465;Laerm;30489;48.982;8.394;2023-04-03T03:32:55;40.72;39.21;42.03;;
40465;Laerm;30489;48.982;8.394;2023-04-03T03:35:05;40.73;39.08;42.09;;
40465;Laerm;30489;48.982;8.394;2023-04-03T03:37:15;40.70;39.34;41.82;;
40465;Laerm;30489;48.982;8.394;2023-04-03T03:39:25;40.70;39.21;42.03;;
40465;Laerm;30489;48.982;8.394;2023-04-03T03:41:36;40.69;39.34;42.03;;
40465;Laerm;30489;48.982;8.394;2023-04-03T03:43:46;40.68;39.34;42.13;;
40465;Laerm;30489;48.982;8.394;2023-04-03T03:45:56;40.63;39.08;41.82;;
40465;Laerm;30489;48.982;8.394;2023-04-03T03:48:07;40.63;39.21;41.96;;
40465;Laerm;30489;48.982;8.394;2023-04-03T03:50:17;40.63;39.21;42.09;;
40465;Laerm;30489;48.982;8.394;2023-04-03T03:52:27;40.63;39.21;42.09;;
40465;Laerm;30489;48.982;8.394;2023-04-03T03:54:38;40.63;39.21;41.82;;
40465;Laerm;30489;48.982;8.394;2023-04-03T03:56:48;40.62;38.95;41.89;;
40465;Laerm;30489;48.982;8.394;2023-04-03T03:58:59;40.62;39.21;41.82;;
40465;Laerm;30489;48.982;8.394;2023-04-03T04:01:09;40.61;39.34;41.82;;
40465;Laerm;30489;48.982;8.394;2023-04-03T04:03:20;40.59;39.34;41.96;;
40465;Laerm;30489;48.982;8.394;2023-04-03T04:05:30;40.58;39.08;41.89;;
40465;Laerm;30489;48.982;8.394;2023-04-03T04:07:41;40.59;39.08;41.82;;
40465;Laerm;30489;48.982;8.394;2023-04-03T04:09:51;40.60;39.08;41.82;;
40465;Laerm;30489;48.982;8.394;2023-04-03T04:12:01;40.59;38.95;41.88;;
40465;Laerm;30489;48.982;8.394;2023-04-03T04:14:11;40.56;39.08;41.75;;
40465;Laerm;30489;48.982;8.394;2023-04-03T04:16:23;40.59;39.21;41.75;;
40465;Laerm;30489;48.982;8.394;2023-04-03T04:18:33;40.57;39.08;41.82;;
40465;Laerm;30489;48.982;8.394;2023-04-03T04:20:44;40.57;39.08;41.89;;
40465;Laerm;30489;48.982;8.394;2023-04-03T04:22:55;40.59;38.95;41.68;;
40465;Laerm;30489;48.982;8.394;2023-04-03T04:25:05;40.60;38.95;41.75;;
40465;Laerm;30489;48.982;8.394;2023-04-03T04:27:15;40.59;38.95;41.96;;
40465;Laerm;30489;48.982;8.394;2023-04-03T04:29:26;40.59;38.95;41.68;;
40465;Laerm;30489;48.982;8.394;2023-04-03T04:31:36;40.59;38.95;41.96;;
40465;Laerm;30489;48.982;8.394;2023-04-03T04:33:46;40.61;39.21;41.82;;
40465;Laerm;30489;48.982;8.394;2023-04-03T04:35:57;40.60;39.08;41.89;;
40465;Laerm;30489;48.982;8.394;2023-04-03T04:38:07;40.62;38.81;41.89;;
40465;Laerm;30489;48.982;8.394;2023-04-03T04:40:18;40.60;39.08;41.75;;
40465;Laerm;30489;48.982;8.394;2023-04-03T04:42:28;40.59;38.67;41.82;;
40465;Laerm;30489;48.982;8.394;2023-04-03T04:44:39;40.59;39.34;41.82;;
40465;Laerm;30489;48.982;8.394;2023-04-03T04:46:49;40.60;39.08;41.89;;
40465;Laerm;30489;48.982;8.394;2023-04-03T04:49:00;40.59;39.21;41.82;;
40465;Laerm;30489;48.982;8.394;2023-04-03T04:51:14;40.61;39.21;41.75;;
40465;Laerm;30489;48.982;8.394;2023-04-03T04:53:24;40.60;38.81;41.96;;
40465;Laerm;30489;48.982;8.394;2023-04-03T04:55:34;40.60;38.95;41.82;;
40465;Laerm;30489;48.982;8.394;2023-04-03T04:57:45;40.60;39.08;41.89;;
40465;Laerm;30489;48.982;8.394;2023-04-03T04:59:55;40.63;39.11;41.82;;
40465;Laerm;30489;48.982;8.394;2023-04-03T05:02:05;40.59;39.08;41.89;;
40465;Laerm;30489;48.982;8.394;2023-04-03T05:04:16;40.66;39.21;41.82;;
40465;Laerm;30489;48.982;8.394;2023-04-03T05:06:27;40.63;39.21;41.75;;
40465;Laerm;30489;48.982;8.394;2023-04-03T05:08:37;40.63;39.21;41.89;;
40465;Laerm;30489;48.982;8.394;2023-04-03T05:10:47;40.63;39.34;41.89;;
40465;Laerm;30489;48.982;8.394;2023-04-03T05:12:58;40.67;39.08;42.06;;
40465;Laerm;30489;48.982;8.394;2023-04-03T05:15:08;40.75;39.21;42.03;;
40465;Laerm;30489;48.982;8.394;2023-04-03T05:17:18;40.83;39.58;42.22;;
40465;Laerm;30489;48.982;8.394;2023-04-03T05:19:28;40.83;39.34;41.96;;
40465;Laerm;30489;48.982;8.394;2023-04-03T05:21:39;40.85;39.34;42.03;;
40465;Laerm;30489;48.982;8.394;2023-04-03T05:23:49;40.91;39.46;42.03;;
40465;Laerm;30489;48.982;8.394;2023-04-03T05:25:59;40.92;39.58;42.09;;
40465;Laerm;30489;48.982;8.394;2023-04-03T05:28:10;40.90;39.34;42.22;;
40465;Laerm;30489;48.982;8.394;2023-04-03T05:30:20;40.92;39.58;42.13;;
40465;Laerm;30489;48.982;8.394;2023-04-03T05:32:31;40.90;39.70;42.16;;
40465;Laerm;30489;48.982;8.394;2023-04-03T05:34:41;40.93;39.58;42.09;;
40465;Laerm;30489;48.982;8.394;2023-04-03T05:36:51;40.88;39.58;42.03;;
40465;Laerm;30489;48.982;8.394;2023-04-03T05:39:02;40.89;39.57;42.29;;
40465;Laerm;30489;48.982;8.394;2023-04-03T05:41:13;40.88;39.46;42.09;;
40465;Laerm;30489;48.982;8.394;2023-04-03T05:43:23;40.88;39.58;42.03;;
40465;Laerm;30489;48.982;8.394;2023-04-03T05:45:33;40.91;39.46;42.16;;
40465;Laerm;30489;48.982;8.394;2023-04-03T05:47:43;40.89;39.46;42.03;;
40465;Laerm;30489;48.982;8.394;2023-04-03T05:49:54;40.90;39.46;42.16;;
40465;Laerm;30489;48.982;8.394;2023-04-03T05:52:04;40.88;39.46;42.35;;
40465;Laerm;30489;48.982;8.394;2023-04-03T05:54:19;40.91;39.21;42.03;;
40465;Laerm;30489;48.982;8.394;2023-04-03T05:56:32;40.89;39.46;42.03;;
40465;Laerm;30489;48.982;8.394;2023-04-03T05:58:43;40.87;39.34;41.96;;
40465;Laerm;30489;48.982;8.394;2023-04-03T06:00:53;40.90;39.46;42.29;;
40465;Laerm;30489;48.982;8.394;2023-04-03T06:03:03;40.90;39.46;42.35;;
40465;Laerm;30489;48.982;8.394;2023-04-03T06:05:13;40.88;39.46;42.16;;
40465;Laerm;30489;48.982;8.394;2023-04-03T06:07:24;40.86;39.21;42.09;;
40465;Laerm;30489;48.982;8.394;2023-04-03T06:09:38;40.86;39.46;42.16;;
40465;Laerm;30489;48.982;8.394;2023-04-03T06:11:48;40.88;39.34;42.16;;
40465;Laerm;30489;48.982;8.394;2023-04-03T06:13:58;40.88;39.46;42.09;;
40465;Laerm;30489;48.982;8.394;2023-04-03T06:16:12;40.91;39.58;42.09;;
40465;Laerm;30489;48.982;8.394;2023-04-03T06:18:25;40.89;39.34;42.09;;
40465;Laerm;30489;48.982;8.394;2023-04-03T06:20:35;40.91;39.58;42.09;;
40465;Laerm;30489;48.982;8.394;2023-04-03T06:22:45;40.89;39.46;42.09;;
40465;Laerm;30489;48.982;8.394;2023-04-03T06:24:56;40.88;39.46;42.16;;
40465;Laerm;30489;48.982;8.394;2023-04-03T06:27:07;40.86;39.34;42.16;;
40465;Laerm;30489;48.982;8.394;2023-04-03T06:29:24;40.86;39.34;42.09;;
40465;Laerm;30489;48.982;8.394;2023-04-03T06:31:35;40.87;39.34;42.03;;
40465;Laerm;30489;48.982;8.394;2023-04-03T06:33:46;40.84;39.58;42.16;;
40465;Laerm;30489;48.982;8.394;2023-04-03T06:35:57;40.85;39.34;42.29;;
40465;Laerm;30489;48.982;8.394;2023-04-03T06:38:08;40.83;39.46;41.96;;
40465;Laerm;30489;48.982;8.394;2023-04-03T06:40:21;40.79;39.34;42.03;;
40465;Laerm;30489;48.982;8.394;2023-04-03T06:42:32;40.81;39.34;42.09;;
40465;Laerm;30489;48.982;8.394;2023-04-03T06:44:42;40.81;39.08;41.96;;
40465;Laerm;30489;48.982;8.394;2023-04-03T06:46:52;40.83;39.34;42.09;;
40465;Laerm;30489;48.982;8.394;2023-04-03T06:49:04;40.80;39.34;42.09;;
40465;Laerm;30489;48.982;8.394;2023-04-03T06:53:27;40.90;39.58;42.03;;
40465;Laerm;30489;48.982;8.394;2023-04-03T06:55:38;40.89;39.34;42.41;;
40465;Laerm;30489;48.982;8.394;2023-04-03T06:57:48;40.85;39.34;42.22;;
40465;Laerm;30489;48.982;8.394;2023-04-03T06:59:58;40.84;39.58;42.09;;
40465;Laerm;30489;48.982;8.394;2023-04-03T07:02:09;40.89;39.34;42.22;;
40465;Laerm;30489;48.982;8.394;2023-04-03T07:04:20;40.96;39.34;42.53;;
40465;Laerm;30489;48.982;8.394;2023-04-03T07:06:30;40.97;39.34;42.09;;
40465;Laerm;30489;48.982;8.394;2023-04-03T07:08:42;40.96;39.34;42.09;;
40465;Laerm;30489;48.982;8.394;2023-04-03T07:10:52;41.01;39.70;42.53;;
40465;Laerm;30489;48.982;8.394;2023-04-03T07:13:02;41.00;39.46;42.29;;
40465;Laerm;30489;48.982;8.394;2023-04-03T07:15:13;41.00;39.70;42.16;;
40465;Laerm;30489;48.982;8.394;2023-04-03T07:17:24;40.96;39.58;42.09;;
40465;Laerm;30489;48.982;8.394;2023-04-03T07:19:35;40.96;39.58;42.58;;
40465;Laerm;30489;48.982;8.394;2023-04-03T07:21:49;40.96;39.46;42.22;;
40465;Laerm;30489;48.982;8.394;2023-04-03T07:23:59;40.94;39.46;42.09;;
40465;Laerm;30489;48.982;8.394;2023-04-03T07:26:09;40.94;39.46;42.16;;
40465;Laerm;30489;48.982;8.394;2023-04-03T07:28:20;40.91;39.34;42.16;;
40465;Laerm;30489;48.982;8.394;2023-04-03T07:30:32;40.92;39.78;42.09;;
40465;Laerm;30489;48.982;8.394;2023-04-03T07:32:42;40.88;39.34;42.09;;
40465;Laerm;30489;48.982;8.394;2023-04-03T07:34:53;40.87;39.34;42.22;;
40465;Laerm;30489;48.982;8.394;2023-04-03T07:37:03;40.86;39.46;42.09;;
40465;Laerm;30489;48.982;8.394;2023-04-03T07:39:14;40.85;39.21;42.03;;
40465;Laerm;30489;48.982;8.394;2023-04-03T07:41:24;40.86;39.58;41.96;;
40465;Laerm;30489;48.982;8.394;2023-04-03T07:43:35;40.89;39.21;41.96;;
40465;Laerm;30489;48.982;8.394;2023-04-03T07:45:45;40.94;39.46;42.09;;
40465;Laerm;30489;48.982;8.394;2023-04-03T07:47:57;40.95;39.58;42.16;;
40465;Laerm;30489;48.982;8.394;2023-04-03T07:50:07;41.00;39.70;42.03;;
40465;Laerm;30489;48.982;8.394;2023-04-03T07:52:17;41.03;39.70;42.47;;
40465;Laerm;30489;48.982;8.394;2023-04-03T07:54:28;40.99;39.46;42.22;;
40465;Laerm;30489;48.982;8.394;2023-04-03T07:56:38;40.95;39.46;42.09;;
40465;Laerm;30489;48.982;8.394;2023-04-03T07:58:48;40.41;38.52;42.22;;
40465;Laerm;30489;48.982;8.394;2023-04-03T08:00:59;40.98;39.46;43.39;;
40465;Laerm;30489;48.982;8.394;2023-04-03T08:03:10;41.06;39.70;42.22;;
40465;Laerm;30489;48.982;8.394;2023-04-03T08:05:21;41.13;39.70;43.33;;
40465;Laerm;30489;48.982;8.394;2023-04-03T08:07:31;41.19;40.03;42.35;;
40465;Laerm;30489;48.982;8.394;2023-04-03T08:09:42;41.23;39.92;45.30;;
40465;Laerm;30489;48.982;8.394;2023-04-03T08:11:52;41.19;40.03;42.41;;
40465;Laerm;30489;48.982;8.394;2023-04-03T08:14:03;41.16;39.58;43.04;;
40465;Laerm;30489;48.982;8.394;2023-04-03T08:16:17;41.16;39.92;42.22;;
40465;Laerm;30489;48.982;8.394;2023-04-03T08:18:28;41.17;39.81;42.29;;
40465;Laerm;30489;48.982;8.394;2023-04-03T08:20:38;41.19;39.81;42.35;;
40465;Laerm;30489;48.982;8.394;2023-04-03T08:22:50;41.20;39.81;42.22;;
40465;Laerm;30489;48.982;8.394;2023-04-03T08:25:00;41.22;39.70;42.71;;
40465;Laerm;30489;48.982;8.394;2023-04-03T08:27:11;41.29;40.03;42.53;;
40465;Laerm;30489;48.982;8.394;2023-04-03T08:29:22;41.28;39.92;42.53;;
40465;Laerm;30489;48.982;8.394;2023-04-03T08:31:32;41.34;40.23;42.76;;
40465;Laerm;30489;48.982;8.394;2023-04-03T08:33:43;41.31;39.92;42.47;;
40465;Laerm;30489;48.982;8.394;2023-04-03T08:35:54;41.39;40.13;42.47;;
40465;Laerm;30489;48.982;8.394;2023-04-03T08:38:04;41.32;39.99;42.59;;
40465;Laerm;30489;48.982;8.394;2023-04-03T08:40:15;41.33;40.03;42.53;;
40465;Laerm;30489;48.982;8.394;2023-04-03T08:42:33;41.42;39.92;42.59;;
40465;Laerm;30489;48.982;8.394;2023-04-03T08:44:47;41.58;40.43;42.65;;
40465;Laerm;30489;48.982;8.394;2023-04-03T08:49:31;41.69;40.03;42.82;;
40465;Laerm;30489;48.982;8.394;2023-04-03T08:51:42;41.70;40.03;42.76;;
40465;Laerm;30489;48.982;8.394;2023-04-03T08:54:41;41.74;40.43;42.82;;
40465;Laerm;30489;48.982;8.394;2023-04-03T08:56:29;41.70;40.43;42.88;;
40465;Laerm;30489;48.982;8.394;2023-04-03T08:59:01;41.70;40.53;42.71;;
40465;Laerm;30489;48.982;8.394;2023-04-03T09:01:18;41.69;40.33;42.76;;
40465;Laerm;30489;48.982;8.394;2023-04-03T09:03:30;41.71;40.53;42.71;;
40465;Laerm;30489;48.982;8.394;2023-04-03T09:05:43;41.73;40.53;42.82;;
40465;Laerm;30489;48.982;8.394;2023-04-03T09:07:57;41.73;40.23;42.76;;
40465;Laerm;30489;48.982;8.394;2023-04-03T09:10:12;41.70;40.33;42.93;;
40465;Laerm;30489;48.982;8.394;2023-04-03T09:12:38;41.74;40.33;42.76;;
40465;Laerm;30489;48.982;8.394;2023-04-03T09:17:21;41.74;40.53;42.93;;
40465;Laerm;30489;48.982;8.394;2023-04-03T09:21:44;41.75;40.53;44.27;;
40465;Laerm;30489;48.982;8.394;2023-04-03T09:23:58;41.88;40.62;44.51;;
40465;Laerm;30489;48.982;8.394;2023-04-03T09:26:11;41.90;40.71;43.14;;
40465;Laerm;30489;48.982;8.394;2023-04-03T09:28:24;41.90;40.71;42.93;;
40465;Laerm;30489;48.982;8.394;2023-04-03T09:30:35;41.88;40.53;43.09;;
40465;Laerm;30489;48.982;8.394;2023-04-03T09:32:46;41.86;40.43;43.04;;
40465;Laerm;30489;48.982;8.394;2023-04-03T09:34:59;41.88;40.62;43.14;;
40465;Laerm;30489;48.982;8.394;2023-04-03T09:37:09;41.92;40.62;43.04;;
40465;Laerm;30489;48.982;8.394;2023-04-03T09:39:22;41.93;40.80;42.93;;
40465;Laerm;30489;48.982;8.394;2023-04-03T09:41:32;41.94;40.62;42.98;;
40465;Laerm;30489;48.982;8.394;2023-04-03T09:43:51;41.95;40.80;43.24;;
40465;Laerm;30489;48.982;8.394;2023-04-03T09:48:33;41.96;40.53;43.00;;
40465;Laerm;30489;48.982;8.394;2023-04-03T09:53:01;42.01;40.71;43.09;;
40465;Laerm;30489;48.982;8.394;2023-04-03T09:55:15;42.05;40.80;43.29;;
40465;Laerm;30489;48.982;8.394;2023-04-03T09:57:28;42.09;40.71;43.14;;
40465;Laerm;30489;48.982;8.394;2023-04-03T09:59:46;42.13;40.80;43.24;;
40465;Laerm;30489;48.982;8.394;2023-04-03T10:02:21;42.13;41.06;43.24;;
40465;Laerm;30489;48.982;8.394;2023-04-03T10:04:40;42.15;41.03;43.24;;
40465;Laerm;30489;48.982;8.394;2023-04-03T10:06:51;42.17;40.89;43.29;;
40465;Laerm;30489;48.982;8.394;2023-04-03T10:09:03;42.19;41.06;43.19;;
40465;Laerm;30489;48.982;8.394;2023-04-03T10:11:15;42.19;40.98;43.19;;
40465;Laerm;30489;48.982;8.394;2023-04-03T10:13:27;42.20;40.62;43.44;;
40465;Laerm;30489;48.982;8.394;2023-04-03T10:15:47;42.22;40.89;46.78;;
40465;Laerm;30489;48.982;8.394;2023-04-03T10:18:02;42.19;40.89;43.34;;
40465;Laerm;30489;48.982;8.394;2023-04-03T10:22:54;42.20;40.98;46.50;;
40465;Laerm;30489;48.982;8.394;2023-04-03T10:27:44;42.17;40.89;44.15;;
40465;Laerm;30489;48.982;8.394;2023-04-03T10:32:35;42.18;40.80;46.18;;
40465;Laerm;30489;48.982;8.394;2023-04-03T10:34:52;42.17;40.89;43.86;;
40465;Laerm;30489;48.982;8.394;2023-04-03T10:44:26;42.15;40.89;43.81;;
40465;Laerm;30489;48.982;8.394;2023-04-03T10:46:43;42.13;40.71;43.24;;
40465;Laerm;30489;48.982;8.394;2023-04-03T10:49:14;42.12;40.71;43.24;;
40465;Laerm;30489;48.982;8.394;2023-04-03T10:58:38;42.06;40.71;43.14;;
40465;Laerm;30489;48.982;8.394;2023-04-03T11:00:50;42.07;40.80;43.29;;
40465;Laerm;30489;48.982;8.394;2023-04-03T11:03:07;42.07;40.80;46.13;;
40465;Laerm;30489;48.982;8.394;2023-04-03T11:05:30;42.05;40.71;43.14;;
40465;Laerm;30489;48.982;8.394;2023-04-03T11:07:43;42.01;40.62;43.09;;
40465;Laerm;30489;48.982;8.394;2023-04-03T11:09:57;42.05;40.43;43.81;;
40465;Laerm;30489;48.982;8.394;2023-04-03T11:12:44;42.06;40.71;43.19;;
40465;Laerm;30489;48.982;8.394;2023-04-03T11:14:47;42.00;40.43;43.19;;
40465;Laerm;30489;48.982;8.394;2023-04-03T11:19:11;42.02;40.53;43.54;;
40465;Laerm;30489;48.982;8.394;2023-04-03T11:21:45;41.98;40.23;43.90;;
40465;Laerm;30489;48.982;8.394;2023-04-03T11:23:57;42.05;40.43;43.29;;
40465;Laerm;30489;48.982;8.394;2023-04-03T11:26:10;42.05;40.71;43.54;;
40465;Laerm;30489;48.982;8.394;2023-04-03T11:28:21;42.02;40.80;43.14;;
40465;Laerm;30489;48.982;8.394;2023-04-03T11:30:33;41.99;40.62;45.01;;
40465;Laerm;30489;48.982;8.394;2023-04-03T11:32:52;41.96;39.92;45.39;;
40465;Laerm;30489;48.982;8.394;2023-04-03T11:35:05;42.01;40.43;43.54;;
40465;Laerm;30489;48.982;8.394;2023-04-03T11:37:21;41.96;40.62;43.44;;
40465;Laerm;30489;48.982;8.394;2023-04-03T11:39:36;41.98;40.53;43.14;;
40465;Laerm;30489;48.982;8.394;2023-04-03T11:41:48;42.00;40.43;43.19;;
40465;Laerm;30489;48.982;8.394;2023-04-03T11:44:03;42.04;40.62;43.19;;
40465;Laerm;30489;48.982;8.394;2023-04-03T11:46:14;42.03;40.43;44.03;;
40465;Laerm;30489;48.982;8.394;2023-04-03T11:50:42;41.99;40.53;43.44;;
40465;Laerm;30489;48.982;8.394;2023-04-03T11:52:58;42.06;40.71;43.19;;
40465;Laerm;30489;48.982;8.394;2023-04-03T11:58:22;42.00;40.62;43.14;;
40465;Laerm;30489;48.982;8.394;2023-04-03T12:00:19;41.98;40.53;43.24;;
40465;Laerm;30489;48.982;8.394;2023-04-03T12:02:35;41.99;40.33;43.09;;
40465;Laerm;30489;48.982;8.394;2023-04-03T12:05:24;42.04;40.43;43.29;;
40465;Laerm;30489;48.982;8.394;2023-04-03T12:07:18;42.05;40.71;43.29;;
40465;Laerm;30489;48.982;8.394;2023-04-03T12:09:35;42.01;40.33;43.29;;
40465;Laerm;30489;48.982;8.394;2023-04-03T12:12:21;42.02;40.53;43.44;;
40465;Laerm;30489;48.982;8.394;2023-04-03T12:14:32;42.03;40.53;43.19;;
40465;Laerm;30489;48.982;8.394;2023-04-03T12:16:43;42.00;40.71;43.19;;
40465;Laerm;30489;48.982;8.394;2023-04-03T12:21:13;41.91;40.23;44.43;;
40465;Laerm;30489;48.982;8.394;2023-04-03T12:23:34;41.98;40.53;43.58;;
40465;Laerm;30489;48.982;8.394;2023-04-03T12:25:50;41.95;40.53;43.09;;
40465;Laerm;30489;48.982;8.394;2023-04-03T12:28:00;41.94;40.43;43.09;;
40465;Laerm;30489;48.982;8.394;2023-04-03T12:30:14;41.96;40.33;45.01;;
40465;Laerm;30489;48.982;8.394;2023-04-03T12:32:29;41.93;40.43;43.14;;
40465;Laerm;30489;48.982;8.394;2023-04-03T12:39:51;41.96;40.62;43.14;;
40465;Laerm;30489;48.982;8.394;2023-04-03T12:42:12;41.93;40.53;43.81;;
40465;Laerm;30489;48.982;8.394;2023-04-03T12:46:55;42.01;40.43;45.63;;
40465;Laerm;30489;48.982;8.394;2023-04-03T12:49:52;41.97;40.43;43.24;;
40465;Laerm;30489;48.982;8.394;2023-04-03T12:51:44;41.99;40.71;43.54;;
40465;Laerm;30489;48.982;8.394;2023-04-03T12:54:02;42.04;40.53;43.34;;
40465;Laerm;30489;48.982;8.394;2023-04-03T12:56:21;42.00;40.71;43.24;;
40465;Laerm;30489;48.982;8.394;2023-04-03T12:58:32;42.01;40.62;43.14;;
40465;Laerm;30489;48.982;8.394;2023-04-03T13:00:43;42.06;40.23;43.29;;
40465;Laerm;30489;48.982;8.394;2023-04-03T13:02:54;42.05;40.63;43.19;;
40465;Laerm;30489;48.982;8.394;2023-04-03T13:05:07;42.01;40.53;44.31;;
40465;Laerm;30489;48.982;8.394;2023-04-03T13:07:18;41.99;40.62;43.29;;
40465;Laerm;30489;48.982;8.394;2023-04-03T13:09:30;41.95;40.62;43.34;;
40465;Laerm;30489;48.982;8.394;2023-04-03T13:11:43;41.97;40.43;44.69;;
40465;Laerm;30489;48.982;8.394;2023-04-03T13:14:02;41.98;40.62;44.31;;
40465;Laerm;30489;48.982;8.394;2023-04-03T13:16:15;41.99;40.23;43.90;;
40465;Laerm;30489;48.982;8.394;2023-04-03T13:18:33;42.00;40.62;43.19;;